Time;durP1;ratioP1;P1;durP2;ratioP2;P2;SDS_P1;SDS_P2;PMS_P1;PMS_P2;Temp;Humidity;BMP_temperature;BMP_pressure;BME280_temperature;BME280_humidity;BME280_pressure;Samples;Min_cycle;Max_cycle;Signal;HPM_P1;HPM_P2
2023/09/17 00:03:24;;;;;;;4.88;3.72;;;;;;;;;;10382311;22;20046;-73
2023/09/17 00:07:24;;;;;;;4.30;3.72;;;;;;;;;;10384944;22;20030;-74
2023/09/17 00:11:24;;;;;;;5.88;3.92;;;;;;;;;;10379861;22;19995;-74
2023/09/17 00:15:27;;;;;;;3.50;3.20;;;;;;;;;;10385568;22;20043;-74
2023/09/17 00:19:27;;;;;;;4.05;3.17;;;;;;;;;;10379605;22;20007;-74
2023/09/17 00:23:28;;;;;;;3.70;3.20;;;;;;;;;;10384308;22;20011;-73
2023/09/17 00:27:28;;;;;;;4.22;3.55;;;;;;;;;;10388932;22;20003;-73
2023/09/17 00:31:28;;;;;;;4.90;3.33;;;;;;;;;;10388895;22;20038;-73
2023/09/17 00:35:28;;;;;;;3.57;3.27;;;;;;;;;;10390117;22;20621;-73
2023/09/17 00:39:29;;;;;;;4.05;3.65;;;;;;;;;;10386562;22;20233;-73
2023/09/17 00:43:30;;;;;;;4.60;3.65;;;;;;;;;;10383447;22;20003;-73
2023/09/17 00:47:30;;;;;;;4.38;3.33;;;;;;;;;;10388061;22;20057;-73
2023/09/17 00:51:32;;;;;;;3.40;3.03;;;;;;;;;;10383316;22;20118;-73
2023/09/17 00:55:33;;;;;;;3.28;2.97;;;;;;;;;;10385921;22;20095;-73
2023/09/17 00:59:33;;;;;;;4.45;3.20;;;;;;;;;;10383233;22;20013;-73
2023/09/17 01:03:34;;;;;;;4.17;2.93;;;;;;;;;;10383184;22;20480;-73
2023/09/17 01:07:37;;;;;;;3.30;3.00;;;;;;;;;;10387024;22;20924;-73
2023/09/17 01:11:38;;;;;;;3.25;3.03;;;;;;;;;;10383543;22;20002;-74
2023/09/17 01:15:38;;;;;;;3.20;2.85;;;;;;;;;;10386682;22;20035;-73
2023/09/17 01:19:38;;;;;;;3.58;3.28;;;;;;;;;;10383163;22;20003;-73
2023/09/17 01:23:42;;;;;;;3.60;3.30;;;;;;;;;;10387265;22;20042;-73
2023/09/17 01:27:45;;;;;;;;;;;;;;;;;;10382779;22;20027;-73
2023/09/17 01:31:45;;;;;;;5.28;3.13;;;;;;;;;;10383246;22;19934;-73
2023/09/17 01:36:01;;;;;;;3.10;2.83;;;;;;;;;;10385744;22;19995;-73
2023/09/17 01:40:05;;;;;;;2.92;2.70;;;;;;;;;;10383476;22;19996;-73
2023/09/17 01:44:06;;;;;;;3.20;2.80;;;;;;;;;;10384794;22;19999;-72
2023/09/17 01:48:06;;;;;;;3.30;3.00;;;;;;;;;;10384274;22;20019;-73
2023/09/17 01:52:06;;;;;;;2.90;2.70;;;;;;;;;;10381583;22;20802;-73
2023/09/17 01:56:06;;;;;;;3.13;2.70;;;;;;;;;;10381693;22;20003;-73
2023/09/17 02:00:16;;;;;;;3.13;2.83;;;;;;;;;;10381046;22;20094;-73
2023/09/17 02:04:17;;;;;;;3.63;3.20;;;;;;;;;;10379287;22;20046;-73
2023/09/17 02:08:17;;;;;;;3.88;3.55;;;;;;;;;;10381695;22;19999;-72
2023/09/17 02:12:17;;;;;;;3.50;3.20;;;;;;;;;;10383270;22;20818;-71
2023/09/17 02:16:17;;;;;;;2.95;2.63;;;;;;;;;;10384119;22;20744;-73
2023/09/17 02:20:17;;;;;;;3.55;3.25;;;;;;;;;;10381393;22;20061;-73
2023/09/17 02:24:19;;;;;;;4.65;3.35;;;;;;;;;;10383737;22;20372;-73
2023/09/17 02:28:19;;;;;;;3.75;3.45;;;;;;;;;;10383066;22;20014;-72
2023/09/17 02:32:19;;;;;;;4.95;3.80;;;;;;;;;;10381872;22;20038;-72
2023/09/17 02:36:20;;;;;;;3.83;3.53;;;;;;;;;;10383209;22;20003;-73
2023/09/17 02:40:20;;;;;;;6.47;3.10;;;;;;;;;;10377748;22;20262;-73
2023/09/17 02:44:21;;;;;;;3.40;3.10;;;;;;;;;;10384719;22;20022;-73
2023/09/17 02:48:21;;;;;;;2.97;2.72;;;;;;;;;;10379696;22;20019;-73
2023/09/17 02:52:21;;;;;;;4.83;3.17;;;;;;;;;;10381335;22;19995;-73
2023/09/17 02:56:21;;;;;;;4.53;2.78;;;;;;;;;;10378509;22;20049;-73
2023/09/17 03:00:21;;;;;;;4.45;3.05;;;;;;;;;;10384337;22;20010;-73
2023/09/17 03:04:24;;;;;;;2.97;2.78;;;;;;;;;;10382566;22;20080;-73
2023/09/17 03:08:24;;;;;;;6.15;2.97;;;;;;;;;;10384892;22;20030;-73
2023/09/17 03:12:24;;;;;;;3.63;3.33;;;;;;;;;;10378292;22;19998;-73
2023/09/17 03:16:24;;;;;;;3.50;3.20;;;;;;;;;;10380958;22;20065;-73
2023/09/17 03:20:27;;;;;;;3.47;3.13;;;;;;;;;;10383199;22;20011;-72
2023/09/17 03:24:27;;;;;;;3.33;3.03;;;;;;;;;;10384595;22;20348;-73
2023/09/17 03:28:27;;;;;;;3.50;3.20;;;;;;;;;;10383162;22;20023;-73
2023/09/17 03:32:28;;;;;;;4.57;3.00;;;;;;;;;;10384350;22;20011;-73
2023/09/17 03:36:28;;;;;;;2.90;2.60;;;;;;;;;;10382819;22;20000;-73
2023/09/17 03:40:28;;;;;;;3.70;2.60;;;;;;;;;;10384035;22;20033;-72
2023/09/17 03:44:28;;;;;;;3.67;2.88;;;;;;;;;;10383914;22;20010;-72
2023/09/17 03:48:29;;;;;;;5.53;3.15;;;;;;;;;;10383303;22;20012;-72
2023/09/17 03:52:29;;;;;;;2.80;2.60;;;;;;;;;;10379917;22;20031;-73
2023/09/17 03:56:29;;;;;;;3.45;3.15;;;;;;;;;;10380105;22;20002;-73
2023/09/17 04:00:30;;;;;;;5.53;3.75;;;;;;;;;;10379495;22;20467;-73
2023/09/17 04:04:30;;;;;;;4.40;3.53;;;;;;;;;;10383133;22;20433;-72
2023/09/17 04:08:30;;;;;;;4.35;3.60;;;;;;;;;;10383725;22;20745;-72
2023/09/17 04:12:32;;;;;;;3.73;3.40;;;;;;;;;;10379516;22;20022;-71
2023/09/17 04:16:32;;;;;;;3.85;3.53;;;;;;;;;;10382498;22;21067;-71
2023/09/17 04:20:32;;;;;;;4.93;3.50;;;;;;;;;;10381599;22;20340;-72
2023/09/17 04:24:32;;;;;;;5.10;3.60;;;;;;;;;;10382539;22;20238;-73
2023/09/17 04:28:34;;;;;;;5.20;3.20;;;;;;;;;;10382587;22;20250;-72
2023/09/17 04:32:37;;;;;;;5.32;3.20;;;;;;;;;;10381465;22;20467;-72
2023/09/17 04:36:38;;;;;;;3.45;3.08;;;;;;;;;;10383314;22;20017;-73
2023/09/17 04:40:39;;;;;;;5.40;3.30;;;;;;;;;;10382829;22;20007;-72
2023/09/17 04:44:39;;;;;;;3.33;2.72;;;;;;;;;;10384851;22;20301;-73
2023/09/17 04:48:39;;;;;;;5.90;2.88;;;;;;;;;;10379373;22;20018;-72
2023/09/17 04:52:39;;;;;;;4.30;2.88;;;;;;;;;;10382771;22;20096;-73
2023/09/17 04:56:40;;;;;;;5.75;3.05;;;;;;;;;;10380746;22;20180;-72
2023/09/17 05:00:40;;;;;;;3.47;2.80;;;;;;;;;;10382089;22;20095;-73
2023/09/17 05:04:40;;;;;;;3.05;2.53;;;;;;;;;;10382182;22;20010;-72
2023/09/17 05:08:41;;;;;;;5.95;2.92;;;;;;;;;;10382307;22;20050;-72
2023/09/17 05:12:42;;;;;;;5.20;2.47;;;;;;;;;;10382637;22;19999;-72
2023/09/17 05:16:42;;;;;;;8.55;2.63;;;;;;;;;;10378854;22;20015;-72
2023/09/17 05:20:44;;;;;;;3.65;2.60;;;;;;;;;;10382171;22;20025;-75
2023/09/17 05:24:44;;;;;;;3.45;2.30;;;;;;;;;;10380332;22;20015;-76
2023/09/17 05:28:44;;;;;;;5.80;2.70;;;;;;;;;;10382045;22;20722;-76
2023/09/17 05:32:44;;;;;;;4.50;2.50;;;;;;;;;;10384659;22;20022;-76
2023/09/17 05:36:45;;;;;;;5.68;2.75;;;;;;;;;;10379905;22;20705;-77
2023/09/17 05:40:45;;;;;;;6.97;2.70;;;;;;;;;;10380471;22;20014;-76
2023/09/17 05:44:45;;;;;;;2.50;2.05;;;;;;;;;;10385278;22;20568;-76
2023/09/17 05:48:45;;;;;;;5.77;2.40;;;;;;;;;;10380327;22;20109;-76
2023/09/17 05:52:45;;;;;;;6.50;2.35;;;;;;;;;;10383051;22;19995;-76
2023/09/17 05:56:46;;;;;;;2.97;2.55;;;;;;;;;;10381831;22;20102;-76
2023/09/17 06:00:47;;;;;;;5.00;2.38;;;;;;;;;;10379770;22;20023;-77
2023/09/17 06:04:51;;;;;;;4.32;2.20;;;;;;;;;;10380155;22;20480;-75
2023/09/17 06:08:51;;;;;;;2.78;1.90;;;;;;;;;;10380439;22;20014;-76
2023/09/17 06:12:52;;;;;;;6.15;2.22;;;;;;;;;;10376907;22;20476;-76
2023/09/17 06:16:52;;;;;;;2.92;1.70;;;;;;;;;;10378735;22;20019;-76
2023/09/17 06:20:52;;;;;;;6.25;2.03;;;;;;;;;;10382571;22;20011;-77
2023/09/17 06:24:52;;;;;;;5.72;1.90;;;;;;;;;;10380033;22;20007;-76
2023/09/17 06:28:52;;;;;;;3.70;1.98;;;;;;;;;;10380178;22;20090;-76
2023/09/17 06:32:53;;;;;;;2.90;2.03;;;;;;;;;;10376575;22;20098;-76
2023/09/17 06:36:53;;;;;;;6.38;1.70;;;;;;;;;;10379710;22;19999;-76
2023/09/17 06:40:53;;;;;;;3.87;2.00;;;;;;;;;;10379671;22;20745;-76
2023/09/17 06:44:53;;;;;;;4.30;1.65;;;;;;;;;;10381185;22;20229;-75
2023/09/17 06:48:53;;;;;;;4.27;1.80;;;;;;;;;;10376059;22;20015;-75
2023/09/17 06:52:54;;;;;;;4.68;1.63;;;;;;;;;;10378393;22;19995;-75
2023/09/17 06:56:54;;;;;;;4.83;1.87;;;;;;;;;;10379213;22;20060;-77
2023/09/17 07:00:55;;;;;;;2.65;1.60;;;;;;;;;;10380747;22;20011;-76
2023/09/17 07:04:55;;;;;;;2.03;1.50;;;;;;;;;;10377136;22;20398;-77
2023/09/17 07:08:57;;;;;;;5.27;1.70;;;;;;;;;;10378599;22;20003;-77
2023/09/17 07:12:57;;;;;;;7.43;1.90;;;;;;;;;;10381303;22;20034;-77
2023/09/17 07:16:57;;;;;;;3.78;1.70;;;;;;;;;;10380501;22;20114;-78
2023/09/17 07:20:58;;;;;;;4.77;1.60;;;;;;;;;;10382624;22;20030;-77
2023/09/17 07:24:58;;;;;;;2.93;1.60;;;;;;;;;;10379078;22;20046;-78
2023/09/17 07:28:58;;;;;;;2.27;1.30;;;;;;;;;;10382087;22;20679;-78
2023/09/17 07:32:59;;;;;;;3.63;1.73;;;;;;;;;;10380106;22;20015;-78
2023/09/17 07:37:00;;;;;;;3.53;1.50;;;;;;;;;;10387199;22;19995;-77
2023/09/17 07:41:00;;;;;;;4.32;1.80;;;;;;;;;;10382690;22;20125;-78
2023/09/17 07:45:01;;;;;;;4.22;1.60;;;;;;;;;;10385913;22;20007;-78
2023/09/17 07:49:01;;;;;;;6.13;1.65;;;;;;;;;;10384845;22;20065;-78
2023/09/17 07:53:02;;;;;;;4.37;1.67;;;;;;;;;;10386742;22;19999;-78
2023/09/17 07:57:04;;;;;;;3.07;1.80;;;;;;;;;;10384320;22;20069;-78
2023/09/17 08:01:07;;;;;;;4.00;1.30;;;;;;;;;;10384624;22;20015;-78
2023/09/17 08:05:07;;;;;;;3.60;1.83;;;;;;;;;;10383564;22;20018;-77
2023/09/17 08:09:08;;;;;;;3.17;1.30;;;;;;;;;;10382346;22;20010;-77
2023/09/17 08:13:08;;;;;;;4.13;1.50;;;;;;;;;;10384433;22;20772;-77
2023/09/17 08:17:09;;;;;;;5.10;1.80;;;;;;;;;;10386530;22;20019;-78
2023/09/17 08:21:09;;;;;;;3.85;1.70;;;;;;;;;;10382424;22;20328;-77
2023/09/17 08:25:09;;;;;;;4.13;2.00;;;;;;;;;;10384087;22;20015;-77
2023/09/17 08:29:10;;;;;;;4.97;1.60;;;;;;;;;;10389144;22;20011;-77
2023/09/17 08:33:11;;;;;;;3.40;1.73;;;;;;;;;;10380262;22;20007;-77
2023/09/17 08:37:11;;;;;;;3.78;2.03;;;;;;;;;;10385585;22;20011;-77
2023/09/17 08:41:13;;;;;;;4.40;1.93;;;;;;;;;;10383843;22;20007;-76
2023/09/17 08:45:14;;;;;;;3.45;1.70;;;;;;;;;;10382125;22;20009;-77
2023/09/17 08:49:15;;;;;;;3.13;1.88;;;;;;;;;;10383294;22;20009;-76
2023/09/17 08:53:18;;;;;;;5.88;1.80;;;;;;;;;;10383197;22;19995;-77
2023/09/17 08:57:22;;;;;;;2.65;1.75;;;;;;;;;;10365172;22;20011;-76
2023/09/17 09:01:23;;;;;;;3.53;2.00;;;;;;;;;;10381573;22;20019;-76
2023/09/17 09:05:25;;;;;;;4.67;1.83;;;;;;;;;;10380934;22;20722;-77
2023/09/17 09:09:25;;;;;;;4.53;1.85;;;;;;;;;;10384525;22;20002;-77
2023/09/17 09:13:25;;;;;;;5.60;1.90;;;;;;;;;;10377966;22;20709;-77
2023/09/17 09:17:27;;;;;;;3.28;2.30;;;;;;;;;;10383930;22;20234;-78
2023/09/17 09:21:28;;;;;;;1.92;1.70;;;;;;;;;;10386010;22;19999;-77
2023/09/17 09:25:28;;;;;;;4.75;2.20;;;;;;;;;;10380358;22;20029;-77
2023/09/17 09:29:29;;;;;;;4.25;1.98;;;;;;;;;;10383368;22;20098;-78
2023/09/17 09:33:30;;;;;;;5.15;2.15;;;;;;;;;;10383203;22;20015;-77
2023/09/17 09:37:31;;;;;;;3.08;2.00;;;;;;;;;;10381010;22;20129;-77
2023/09/17 09:41:33;;;;;;;4.28;2.13;;;;;;;;;;10385083;22;20115;-77
2023/09/17 09:45:33;;;;;;;5.38;1.90;;;;;;;;;;10381818;22;20011;-77
2023/09/17 09:49:44;;;;;;;3.20;1.97;;;;;;;;;;10368026;22;20011;-77
2023/09/17 09:53:44;;;;;;;4.78;2.00;;;;;;;;;;10382012;22;20894;-77
2023/09/17 09:57:45;;;;;;;3.78;2.10;;;;;;;;;;10357389;22;20069;-77
2023/09/17 10:01:46;;;;;;;5.22;2.13;;;;;;;;;;10383085;22;20023;-77
2023/09/17 10:05:46;;;;;;;4.70;2.07;;;;;;;;;;10384237;22;20006;-76
2023/09/17 10:09:46;;;;;;;3.65;1.92;;;;;;;;;;10380839;22;20498;-77
2023/09/17 10:13:46;;;;;;;3.75;2.38;;;;;;;;;;10380804;22;20105;-76
2023/09/17 10:17:48;;;;;;;4.93;2.20;;;;;;;;;;10384678;22;20015;-77
2023/09/17 10:21:49;;;;;;;3.58;1.98;;;;;;;;;;10385454;22;20018;-76
2023/09/17 10:25:55;;;;;;;5.78;2.03;;;;;;;;;;10384609;22;20076;-76
2023/09/17 10:29:56;;;;;;;3.72;2.00;;;;;;;;;;10380205;22;20003;-76
2023/09/17 10:33:56;;;;;;;4.18;2.00;;;;;;;;;;10382055;22;20019;-76
2023/09/17 10:38:00;;;;;;;7.63;2.30;;;;;;;;;;10383866;22;20022;-76
2023/09/17 10:42:01;;;;;;;4.95;1.88;;;;;;;;;;10384135;22;20030;-77
2023/09/17 10:46:05;;;;;;;5.68;2.08;;;;;;;;;;10382555;22;20743;-76
2023/09/17 10:50:06;;;;;;;4.68;2.10;;;;;;;;;;10379559;22;20002;-76
2023/09/17 10:54:06;;;;;;;3.55;1.73;;;;;;;;;;10382895;22;20590;-76
2023/09/17 10:58:17;;;;;;;4.20;2.03;;;;;;;;;;10380927;22;20324;-76
2023/09/17 11:02:18;;;;;;;4.25;2.10;;;;;;;;;;10379474;22;20108;-76
2023/09/17 11:06:23;;;;;;;4.38;2.15;;;;;;;;;;10381734;22;20003;-77
2023/09/17 11:10:24;;;;;;;4.20;2.42;;;;;;;;;;10382048;22;19991;-76
2023/09/17 11:14:24;;;;;;;3.20;2.00;;;;;;;;;;10378459;22;19999;-76
2023/09/17 11:18:24;;;;;;;4.13;1.95;;;;;;;;;;10382437;22;20037;-77
2023/09/17 11:22:27;;;;;;;4.85;2.00;;;;;;;;;;10381859;22;20035;-77
2023/09/17 11:26:27;;;;;;;4.95;1.98;;;;;;;;;;10381509;22;20011;-76
2023/09/17 11:30:29;;;;;;;5.30;2.03;;;;;;;;;;10379610;22;20110;-76
2023/09/17 11:34:29;;;;;;;7.45;2.10;;;;;;;;;;10384078;22;20003;-77
2023/09/17 11:38:30;;;;;;;4.95;2.13;;;;;;;;;;10377732;22;20481;-77
2023/09/17 11:42:30;;;;;;;6.93;2.58;;;;;;;;;;10379108;22;20003;-77
2023/09/17 11:46:33;;;;;;;6.60;2.40;;;;;;;;;;10381816;22;20015;-77
2023/09/17 11:50:33;;;;;;;5.30;2.17;;;;;;;;;;10375863;22;20026;-76
2023/09/17 11:54:38;;;;;;;5.68;2.28;;;;;;;;;;10378548;22;20594;-77
2023/09/17 11:58:38;;;;;;;4.93;2.25;;;;;;;;;;10380998;22;20014;-77
2023/09/17 12:02:38;;;;;;;4.65;2.30;;;;;;;;;;10379738;22;20012;-77
2023/09/17 12:06:50;;;;;;;7.30;3.90;;;;;;;;;;10381611;22;20022;-77
2023/09/17 12:10:53;;;;;;;11.48;2.92;;;;;;;;;;10380313;22;19995;-78
2023/09/17 12:14:53;;;;;;;4.70;2.15;;;;;;;;;;10382998;22;19995;-77
2023/09/17 12:18:54;;;;;;;6.28;2.50;;;;;;;;;;10380732;22;20130;-77
2023/09/17 12:22:56;;;;;;;5.55;2.40;;;;;;;;;;10382821;22;20054;-77
2023/09/17 12:31:06;;;;;;;4.82;2.20;;;;;;;;;;10394239;22;20318;-76
2023/09/17 12:35:07;;;;;;;6.72;2.20;;;;;;;;;;10385420;22;20008;-77
2023/09/17 12:39:07;;;;;;;9.10;2.58;;;;;;;;;;10379952;22;20018;-77
2023/09/17 12:43:08;;;;;;;8.85;2.60;;;;;;;;;;10384577;22;20031;-77
2023/09/17 12:47:08;;;;;;;6.47;2.33;;;;;;;;;;10381421;22;20651;-77
2023/09/17 12:51:08;;;;;;;6.53;2.50;;;;;;;;;;10381101;22;20082;-77
2023/09/17 12:55:09;;;;;;;5.57;2.40;;;;;;;;;;10380974;22;20004;-77
2023/09/17 12:59:09;;;;;;;6.80;2.50;;;;;;;;;;10380709;22;20003;-77
2023/09/17 13:03:10;;;;;;;6.80;2.88;;;;;;;;;;10381092;22;20026;-78
2023/09/17 13:07:14;;;;;;;5.33;2.63;;;;;;;;;;10381637;22;20004;-77
2023/09/17 13:11:15;;;;;;;7.85;3.33;;;;;;;;;;10382443;22;20746;-77
2023/09/17 13:15:15;;;;;;;8.18;2.42;;;;;;;;;;10379460;22;20608;-77
2023/09/17 13:19:16;;;;;;;7.90;2.50;;;;;;;;;;10383081;22;20679;-77
2023/09/17 13:23:17;;;;;;;6.78;2.20;;;;;;;;;;10384367;22;20006;-77
2023/09/17 13:27:18;;;;;;;8.15;2.35;;;;;;;;;;10382672;22;20365;-77
2023/09/17 13:31:19;;;;;;;10.23;2.72;;;;;;;;;;10383541;22;20102;-77
2023/09/17 13:35:22;;;;;;;9.43;2.92;;;;;;;;;;10378956;22;20086;-77
2023/09/17 13:39:23;;;;;;;7.18;2.50;;;;;;;;;;10380563;22;20018;-78
2023/09/17 13:43:23;;;;;;;6.50;2.42;;;;;;;;;;10381958;22;20007;-77
2023/09/17 13:47:23;;;;;;;7.20;2.58;;;;;;;;;;10380376;22;20015;-77
2023/09/17 13:51:23;;;;;;;8.67;2.60;;;;;;;;;;10381634;22;19999;-76
2023/09/17 13:55:24;;;;;;;9.43;2.57;;;;;;;;;;10382554;22;20096;-77
2023/09/17 13:59:24;;;;;;;10.07;2.35;;;;;;;;;;10381324;22;19999;-77
2023/09/17 14:03:24;;;;;;;8.98;2.53;;;;;;;;;;10382345;22;20015;-77
2023/09/17 14:07:24;;;;;;;7.80;2.20;;;;;;;;;;10384538;22;20078;-77
2023/09/17 14:11:26;;;;;;;6.38;2.45;;;;;;;;;;10383465;22;20001;-76
2023/09/17 14:15:26;;;;;;;9.20;2.57;;;;;;;;;;10386635;22;20747;-76
2023/09/17 14:19:26;;;;;;;9.25;2.25;;;;;;;;;;10384869;22;20104;-76
2023/09/17 14:23:27;;;;;;;7.25;2.58;;;;;;;;;;10383244;22;20022;-70
2023/09/17 14:27:27;;;;;;;7.60;2.55;;;;;;;;;;10382298;22;20102;-70
2023/09/17 14:31:27;;;;;;;8.30;2.40;;;;;;;;;;10378787;22;20003;-69
2023/09/17 14:35:27;;;;;;;8.15;2.35;;;;;;;;;;10378868;22;19991;-70
2023/09/17 14:39:28;;;;;;;11.50;2.63;;;;;;;;;;10387152;22;20009;-69
2023/09/17 14:43:29;;;;;;;12.63;2.60;;;;;;;;;;10379659;22;20110;-70
2023/09/17 14:47:29;;;;;;;9.02;2.40;;;;;;;;;;10380472;22;20583;-70
2023/09/17 14:51:30;;;;;;;12.55;2.67;;;;;;;;;;10380823;22;20305;-71
2023/09/17 14:55:30;;;;;;;10.37;2.50;;;;;;;;;;10380122;22;20007;-70
2023/09/17 14:59:31;;;;;;;8.20;2.57;;;;;;;;;;10381903;22;20351;-70
2023/09/17 15:03:32;;;;;;;10.82;2.42;;;;;;;;;;10381255;22;20015;-70
2023/09/17 15:07:32;;;;;;;7.85;2.20;;;;;;;;;;10380583;22;20039;-70
2023/09/17 15:11:32;;;;;;;8.17;2.30;;;;;;;;;;10380237;22;19996;-70
2023/09/17 15:15:33;;;;;;;8.95;2.53;;;;;;;;;;10377656;22;20015;-70
2023/09/17 15:19:33;;;;;;;10.37;2.63;;;;;;;;;;10379785;22;20499;-70
2023/09/17 15:23:33;;;;;;;8.05;2.33;;;;;;;;;;10379712;22;20695;-72
2023/09/17 15:27:33;;;;;;;8.98;2.58;;;;;;;;;;10380056;22;20003;-71
2023/09/17 15:31:37;;;;;;;8.07;2.53;;;;;;;;;;10375818;22;20015;-76
2023/09/17 15:35:38;;;;;;;10.13;2.50;;;;;;;;;;10379052;22;20696;-71
2023/09/17 15:39:38;;;;;;;6.47;2.35;;;;;;;;;;10379571;22;20083;-71
2023/09/17 15:43:38;;;;;;;7.30;2.10;;;;;;;;;;10376063;22;20003;-71
2023/09/17 15:47:40;;;;;;;10.85;2.88;;;;;;;;;;10372469;22;20031;-71
2023/09/17 15:51:40;;;;;;;8.15;2.58;;;;;;;;;;10379017;22;20047;-71
2023/09/17 15:55:40;;;;;;;9.90;2.50;;;;;;;;;;10377689;22;20003;-70
2023/09/17 15:59:40;;;;;;;6.13;2.07;;;;;;;;;;10381526;22;20007;-70
2023/09/17 16:03:41;;;;;;;7.30;2.40;;;;;;;;;;10375312;22;20238;-70
2023/09/17 16:07:41;;;;;;;9.77;2.40;;;;;;;;;;10379950;22;20007;-69
2023/09/17 16:11:41;;;;;;;7.45;2.45;;;;;;;;;;10376875;22;19995;-69
2023/09/17 16:15:42;;;;;;;6.85;2.67;;;;;;;;;;10381619;22;20018;-70
2023/09/17 16:19:51;;;;;;;7.25;2.08;;;;;;;;;;10377197;22;19999;-70
2023/09/17 16:23:51;;;;;;;8.70;2.72;;;;;;;;;;10377314;22;20011;-69
2023/09/17 16:27:51;;;;;;;8.77;2.50;;;;;;;;;;10377765;22;20003;-69
2023/09/17 16:31:51;;;;;;;10.02;2.40;;;;;;;;;;10373135;22;20008;-70
2023/09/17 16:35:52;;;;;;;12.80;2.63;;;;;;;;;;10377638;22;20042;-70
2023/09/17 16:39:53;;;;;;;9.18;2.40;;;;;;;;;;10378933;22;20002;-71
2023/09/17 16:43:53;;;;;;;5.32;2.05;;;;;;;;;;10376096;22;19999;-70
2023/09/17 16:47:54;;;;;;;5.88;2.10;;;;;;;;;;10373173;22;20026;-69
2023/09/17 16:51:54;;;;;;;10.73;2.30;;;;;;;;;;10372840;22;20061;-71
2023/09/17 16:55:54;;;;;;;7.22;2.10;;;;;;;;;;10374667;22;19995;-70
2023/09/17 16:59:55;;;;;;;5.47;1.92;;;;;;;;;;10378391;22;20003;-71
2023/09/17 17:03:55;;;;;;;5.07;2.05;;;;;;;;;;10377004;22;20827;-71
2023/09/17 17:07:55;;;;;;;7.87;2.03;;;;;;;;;;10380586;22;20003;-71
2023/09/17 17:11:55;;;;;;;8.00;2.00;;;;;;;;;;10376878;22;20229;-71
2023/09/17 17:15:56;;;;;;;4.03;1.60;;;;;;;;;;10379572;22;20509;-71
2023/09/17 17:19:56;;;;;;;15.17;2.53;;;;;;;;;;10378491;22;20003;-70
2023/09/17 17:23:58;;;;;;;7.05;2.20;;;;;;;;;;10377246;22;20379;-70
2023/09/17 17:27:58;;;;;;;6.45;2.13;;;;;;;;;;10379591;22;20030;-70
2023/09/17 17:31:58;;;;;;;7.28;2.10;;;;;;;;;;10376266;22;20007;-71
2023/09/17 17:35:59;;;;;;;6.93;2.13;;;;;;;;;;10378489;22;20084;-70
2023/09/17 17:39:59;;;;;;;3.88;1.92;;;;;;;;;;10371422;22;20015;-70
2023/09/17 17:44:00;;;;;;;6.63;2.10;;;;;;;;;;10378543;22;20014;-70
2023/09/17 17:48:00;;;;;;;4.97;1.92;;;;;;;;;;10375600;22;20015;-70
2023/09/17 17:52:00;;;;;;;5.03;1.90;;;;;;;;;;10378338;22;19999;-70
2023/09/17 17:56:01;;;;;;;7.00;2.45;;;;;;;;;;10371216;22;20007;-71
2023/09/17 18:00:05;;;;;;;6.07;2.08;;;;;;;;;;10378626;22;20003;-71
2023/09/17 18:04:05;;;;;;;4.53;1.70;;;;;;;;;;10377477;22;20121;-72
2023/09/17 18:08:05;;;;;;;4.87;1.90;;;;;;;;;;10375971;22;20451;-72
2023/09/17 18:12:07;;;;;;;7.07;2.00;;;;;;;;;;10371982;22;19999;-71
2023/09/17 18:16:07;;;;;;;4.18;1.63;;;;;;;;;;10372196;22;20039;-71
2023/09/17 18:20:11;;;;;;;5.13;1.90;;;;;;;;;;10373331;22;20663;-70
2023/09/17 18:24:12;;;;;;;3.35;1.83;;;;;;;;;;10379253;22;20011;-71
2023/09/17 18:28:12;;;;;;;4.70;1.80;;;;;;;;;;10377212;22;20077;-71
2023/09/17 18:32:13;;;;;;;3.53;1.70;;;;;;;;;;10373834;22;20011;-69
2023/09/17 18:36:13;;;;;;;7.50;2.17;;;;;;;;;;10376334;22;20082;-69
2023/09/17 18:40:13;;;;;;;7.78;2.38;;;;;;;;;;10375747;22;20023;-69
2023/09/17 18:44:13;;;;;;;4.90;2.00;;;;;;;;;;10377476;22;20007;-69
2023/09/17 18:48:14;;;;;;;4.50;2.20;;;;;;;;;;10373789;22;20026;-70
2023/09/17 18:52:16;;;;;;;6.57;1.88;;;;;;;;;;10380106;22;19999;-69
2023/09/17 18:56:16;;;;;;;4.75;2.20;;;;;;;;;;10373281;22;20050;-70
2023/09/17 19:00:18;;;;;;;7.80;1.93;;;;;;;;;;10372198;22;20007;-70
2023/09/17 19:04:18;;;;;;;7.57;2.40;;;;;;;;;;10371744;22;20006;-72
2023/09/17 19:08:18;;;;;;;7.45;2.38;;;;;;;;;;10368591;22;20010;-72
2023/09/17 19:12:20;;;;;;;7.27;2.33;;;;;;;;;;10375237;22;20007;-72
2023/09/17 19:16:20;;;;;;;8.43;2.58;;;;;;;;;;10382963;22;20131;-72
2023/09/17 19:20:21;;;;;;;8.80;2.67;;;;;;;;;;10369610;22;20770;-72
2023/09/17 19:24:21;;;;;;;6.82;2.35;;;;;;;;;;10372901;22;20018;-72
2023/09/17 19:28:21;;;;;;;5.72;2.30;;;;;;;;;;10381035;22;20096;-72
2023/09/17 19:32:21;;;;;;;7.15;2.10;;;;;;;;;;10373382;22;20022;-72
2023/09/17 19:36:23;;;;;;;13.00;2.97;;;;;;;;;;10374980;22;20592;-72
2023/09/17 19:40:23;;;;;;;7.50;2.50;;;;;;;;;;10372327;22;20325;-72
2023/09/17 19:44:23;;;;;;;6.97;2.42;;;;;;;;;;10374883;22;20062;-73
2023/09/17 19:48:24;;;;;;;7.47;2.60;;;;;;;;;;10374010;22;20019;-73
2023/09/17 19:52:24;;;;;;;8.80;2.27;;;;;;;;;;10375422;22;19995;-73
2023/09/17 19:56:24;;;;;;;10.32;2.50;;;;;;;;;;10371962;22;20260;-71
2023/09/17 20:00:24;;;;;;;10.20;2.33;;;;;;;;;;10376778;22;20014;-72
2023/09/17 20:04:25;;;;;;;5.80;2.40;;;;;;;;;;10377755;22;20452;-72
2023/09/17 20:08:25;;;;;;;9.50;2.20;;;;;;;;;;10373532;22;20706;-72
2023/09/17 20:12:26;;;;;;;4.10;2.05;;;;;;;;;;10378483;22;19999;-73
2023/09/17 20:16:26;;;;;;;5.88;2.15;;;;;;;;;;10378062;22;20796;-72
2023/09/17 20:20:28;;;;;;;5.67;2.30;;;;;;;;;;10377637;22;20019;-72
2023/09/17 20:24:28;;;;;;;10.00;2.33;;;;;;;;;;10376255;22;20003;-72
2023/09/17 20:28:28;;;;;;;5.13;2.00;;;;;;;;;;10355304;22;20427;-72
2023/09/17 20:32:28;;;;;;;3.78;2.03;;;;;;;;;;10376326;22;20011;-72
2023/09/17 20:36:29;;;;;;;5.57;2.05;;;;;;;;;;10372903;22;20082;-72
2023/09/17 20:40:29;;;;;;;5.28;2.10;;;;;;;;;;10374795;22;19991;-72
2023/09/17 20:44:29;;;;;;;6.55;2.45;;;;;;;;;;10373123;22;20019;-72
2023/09/17 20:48:30;;;;;;;6.13;2.40;;;;;;;;;;10373829;22;20015;-71
2023/09/17 20:52:30;;;;;;;5.28;2.35;;;;;;;;;;10374949;22;20315;-71
2023/09/17 20:56:30;;;;;;;5.97;2.45;;;;;;;;;;10372936;22;20069;-72
2023/09/17 21:00:30;;;;;;;5.97;2.30;;;;;;;;;;10372542;22;20007;-72
2023/09/17 21:04:31;;;;;;;5.03;2.08;;;;;;;;;;10379105;22;20378;-71
2023/09/17 21:08:31;;;;;;;5.78;2.40;;;;;;;;;;10376044;22;20002;-71
2023/09/17 21:12:32;;;;;;;5.20;2.10;;;;;;;;;;10374979;22;20065;-72
2023/09/17 21:16:33;;;;;;;8.40;2.47;;;;;;;;;;10374874;22;20015;-72
2023/09/17 21:20:34;;;;;;;7.45;2.83;;;;;;;;;;10375366;22;20003;-71
2023/09/17 21:24:34;;;;;;;7.80;2.42;;;;;;;;;;10372523;22;20763;-72
2023/09/17 21:28:35;;;;;;;8.57;2.67;;;;;;;;;;10377378;22;20011;-71
2023/09/17 21:32:35;;;;;;;7.27;2.60;;;;;;;;;;10376764;22;20085;-73
2023/09/17 21:36:35;;;;;;;5.97;2.25;;;;;;;;;;10368825;22;20003;-71
2023/09/17 21:40:35;;;;;;;8.37;2.30;;;;;;;;;;10371308;22;20014;-72
2023/09/17 21:44:36;;;;;;;5.40;2.40;;;;;;;;;;10372738;22;20225;-71
2023/09/17 21:48:36;;;;;;;9.40;2.50;;;;;;;;;;10371476;22;20015;-72
2023/09/17 21:52:36;;;;;;;4.60;2.00;;;;;;;;;;10374514;22;20025;-72
2023/09/17 21:56:36;;;;;;;5.45;1.90;;;;;;;;;;10372796;22;20267;-72
2023/09/17 22:00:37;;;;;;;7.70;2.27;;;;;;;;;;10373979;22;20018;-72
2023/09/17 22:04:37;;;;;;;6.73;2.53;;;;;;;;;;10375116;22;20221;-72
2023/09/17 22:08:38;;;;;;;4.10;2.30;;;;;;;;;;10374643;22;20006;-72
2023/09/17 22:12:39;;;;;;;5.63;2.40;;;;;;;;;;10372059;22;20006;-72
2023/09/17 22:16:39;;;;;;;4.28;2.10;;;;;;;;;;10374969;22;20757;-72
2023/09/17 22:20:40;;;;;;;6.55;2.40;;;;;;;;;;10373492;22;20006;-72
2023/09/17 22:24:46;;;;;;;8.53;2.60;;;;;;;;;;10372888;22;20031;-72
2023/09/17 22:28:48;;;;;;;6.88;2.53;;;;;;;;;;10364381;22;20074;-72
2023/09/17 22:32:49;;;;;;;5.60;2.53;;;;;;;;;;10371807;22;20022;-72
2023/09/17 22:36:49;;;;;;;7.10;2.53;;;;;;;;;;10370626;22;20007;-72
2023/09/17 22:40:49;;;;;;;6.65;2.55;;;;;;;;;;10372254;22;20027;-72
2023/09/17 22:44:49;;;;;;;4.97;2.33;;;;;;;;;;10375629;22;19996;-72
2023/09/17 22:48:50;;;;;;;6.45;2.35;;;;;;;;;;10371803;22;20022;-72
2023/09/17 22:52:50;;;;;;;4.95;2.20;;;;;;;;;;10376144;22;20176;-72
2023/09/17 22:56:51;;;;;;;4.63;2.30;;;;;;;;;;10376449;22;20062;-72
2023/09/17 23:00:52;;;;;;;4.93;2.50;;;;;;;;;;10381142;22;20230;-72
2023/09/17 23:04:52;;;;;;;5.38;2.35;;;;;;;;;;10377630;22;20003;-72
2023/09/17 23:08:54;;;;;;;7.63;2.42;;;;;;;;;;10380014;22;20014;-72
2023/09/17 23:12:54;;;;;;;5.45;2.17;;;;;;;;;;10375315;22;20011;-73
2023/09/17 23:16:54;;;;;;;4.87;2.27;;;;;;;;;;10379295;22;20018;-72
2023/09/17 23:20:54;;;;;;;3.75;2.28;;;;;;;;;;10376214;22;20614;-72
2023/09/17 23:24:55;;;;;;;6.32;2.28;;;;;;;;;;10379262;22;20380;-72
2023/09/17 23:28:55;;;;;;;7.18;2.30;;;;;;;;;;10378960;22;20003;-72
2023/09/17 23:32:56;;;;;;;9.95;2.28;;;;;;;;;;10377947;22;20011;-72
2023/09/17 23:36:56;;;;;;;6.53;2.70;;;;;;;;;;10377377;22;20007;-72
2023/09/17 23:40:56;;;;;;;5.32;2.30;;;;;;;;;;10378368;22;19995;-72
2023/09/17 23:44:56;;;;;;;5.35;2.05;;;;;;;;;;10383129;22;20003;-71